createdAt,value
2023-04-15T18:09:41.944Z,4.36
2023-04-15T18:09:59.475Z,4.43
2023-04-15T18:10:17.259Z,4.03
2023-04-15T18:10:35.625Z,4.12
2023-04-15T18:10:53.364Z,3.81
2023-04-15T18:11:12.794Z,3.59
2023-04-15T18:11:33.494Z,4.11
2023-04-15T18:11:51.262Z,4.12
2023-04-15T18:12:09.362Z,4.20
2023-04-15T18:12:27.428Z,3.57
2023-04-15T18:12:44.919Z,3.33
2023-04-15T18:13:04.271Z,3.64
2023-04-15T18:13:22.057Z,3.83
2023-04-15T18:13:41.160Z,3.92
2023-04-15T18:14:00.369Z,4.06
2023-04-15T18:14:31.152Z,3.69
2023-04-15T18:14:52.296Z,3.72
2023-04-15T18:15:10.812Z,3.68
2023-04-15T18:15:28.289Z,3.97
2023-04-15T18:15:47.432Z,3.81
2023-04-15T18:16:06.832Z,3.84
2023-04-15T18:16:24.524Z,3.56
2023-04-15T18:16:43.083Z,4.16
2023-04-15T18:17:01.093Z,4.09
2023-04-15T18:17:18.808Z,3.84
2023-04-15T18:17:36.823Z,3.86
2023-04-15T18:17:54.863Z,4.19
2023-04-15T18:18:12.663Z,3.61
2023-04-15T18:18:30.261Z,3.42
2023-04-15T18:18:47.828Z,3.72
2023-04-15T18:19:05.486Z,3.67
2023-04-15T18:19:24.903Z,3.38
2023-04-15T18:19:42.589Z,3.28
2023-04-15T18:20:00.412Z,3.47
2023-04-15T18:20:18.094Z,3.40
2023-04-15T18:20:35.779Z,3.45
2023-04-15T18:20:53.391Z,3.91
2023-04-15T18:21:13.442Z,4.22
2023-04-15T18:21:31.834Z,4.12
2023-04-15T18:21:49.730Z,3.97
2023-04-15T18:22:07.447Z,3.69
2023-04-15T18:22:25.078Z,3.58
2023-04-15T18:22:43.457Z,3.71
2023-04-15T18:23:00.939Z,3.74
2023-04-15T18:23:30.725Z,3.66
2023-04-15T18:23:48.049Z,3.81
2023-04-15T18:24:06.287Z,3.80
2023-04-15T18:24:23.853Z,3.65
2023-04-15T18:24:41.868Z,3.60
2023-04-15T18:25:04.242Z,3.67
2023-04-15T18:29:16.041Z,4.12
2023-04-15T18:29:48.553Z,4.82
2023-04-15T18:30:20.962Z,4.87
2023-04-15T18:30:54.114Z,5.07
2023-04-15T18:31:26.538Z,5.42
2023-04-15T18:32:00.466Z,5.45
2023-04-15T18:32:33.056Z,5.07
2023-04-15T18:33:05.482Z,4.92
2023-04-15T18:33:37.723Z,5.38
2023-04-15T18:34:09.913Z,5.22
2023-04-15T18:34:43.031Z,4.59
2023-04-15T18:35:17.259Z,4.66
